sensor_id;sensor_type;location;lat;lon;timestamp;P1;durP1;ratioP1;P2;durP2;ratioP2
24650;SDS011;12783;48.824;8.662;2023-03-23T00:00:54;2.30;;;0.95;;
24650;SDS011;12783;48.824;8.662;2023-03-23T00:03:20;1.63;;;0.88;;
24650;SDS011;12783;48.824;8.662;2023-03-23T00:05:47;1.10;;;1.00;;
24650;SDS011;12783;48.824;8.662;2023-03-23T00:08:16;2.97;;;1.00;;
24650;SDS011;12783;48.824;8.662;2023-03-23T00:10:51;2.40;;;1.20;;
24650;SDS011;12783;48.824;8.662;2023-03-23T00:13:18;1.73;;;1.00;;
24650;SDS011;12783;48.824;8.662;2023-03-23T00:15:46;1.65;;;0.93;;
24650;SDS011;12783;48.824;8.662;2023-03-23T00:18:14;1.67;;;1.02;;
24650;SDS011;12783;48.824;8.662;2023-03-23T00:20:50;1.10;;;0.98;;
24650;SDS011;12783;48.824;8.662;2023-03-23T00:23:18;2.25;;;0.90;;
24650;SDS011;12783;48.824;8.662;2023-03-23T00:25:49;2.05;;;1.13;;
24650;SDS011;12783;48.824;8.662;2023-03-23T00:28:21;0.80;;;0.75;;
24650;SDS011;12783;48.824;8.662;2023-03-23T00:31:00;1.63;;;0.85;;
24650;SDS011;12783;48.824;8.662;2023-03-23T00:33:28;3.00;;;0.90;;
24650;SDS011;12783;48.824;8.662;2023-03-23T00:35:55;0.85;;;0.85;;
24650;SDS011;12783;48.824;8.662;2023-03-23T00:38:21;3.92;;;1.00;;
24650;SDS011;12783;48.824;8.662;2023-03-23T00:40:48;4.00;;;1.05;;
24650;SDS011;12783;48.824;8.662;2023-03-23T00:43:15;1.67;;;1.08;;
24650;SDS011;12783;48.824;8.662;2023-03-23T00:45:41;1.63;;;1.00;;
24650;SDS011;12783;48.824;8.662;2023-03-23T00:48:10;3.22;;;0.88;;
24650;SDS011;12783;48.824;8.662;2023-03-23T00:50:38;4.68;;;0.90;;
24650;SDS011;12783;48.824;8.662;2023-03-23T00:53:04;1.48;;;1.05;;
24650;SDS011;12783;48.824;8.662;2023-03-23T00:55:30;1.10;;;0.98;;
24650;SDS011;12783;48.824;8.662;2023-03-23T00:57:56;0.70;;;0.70;;
24650;SDS011;12783;48.824;8.662;2023-03-23T01:00:21;1.50;;;1.10;;
24650;SDS011;12783;48.824;8.662;2023-03-23T01:02:48;2.28;;;1.05;;
24650;SDS011;12783;48.824;8.662;2023-03-23T01:05:16;0.80;;;0.80;;
24650;SDS011;12783;48.824;8.662;2023-03-23T01:07:42;1.35;;;0.90;;
24650;SDS011;12783;48.824;8.662;2023-03-23T01:10:09;1.00;;;0.90;;
24650;SDS011;12783;48.824;8.662;2023-03-23T01:12:40;1.20;;;0.90;;
24650;SDS011;12783;48.824;8.662;2023-03-23T01:15:06;1.02;;;0.93;;
24650;SDS011;12783;48.824;8.662;2023-03-23T01:17:32;1.30;;;1.00;;
24650;SDS011;12783;48.824;8.662;2023-03-23T01:19:58;1.88;;;1.02;;
24650;SDS011;12783;48.824;8.662;2023-03-23T01:22:24;1.45;;;0.85;;
24650;SDS011;12783;48.824;8.662;2023-03-23T01:24:50;1.35;;;1.13;;
24650;SDS011;12783;48.824;8.662;2023-03-23T01:27:15;1.42;;;0.98;;
24650;SDS011;12783;48.824;8.662;2023-03-23T01:29:41;5.10;;;1.33;;
24650;SDS011;12783;48.824;8.662;2023-03-23T01:32:07;3.47;;;1.20;;
24650;SDS011;12783;48.824;8.662;2023-03-23T01:34:32;1.63;;;1.00;;
24650;SDS011;12783;48.824;8.662;2023-03-23T01:36:58;1.80;;;0.88;;
24650;SDS011;12783;48.824;8.662;2023-03-23T01:39:24;1.27;;;1.13;;
24650;SDS011;12783;48.824;8.662;2023-03-23T01:41:50;1.23;;;1.10;;
24650;SDS011;12783;48.824;8.662;2023-03-23T01:46:41;3.17;;;0.90;;
24650;SDS011;12783;48.824;8.662;2023-03-23T01:49:09;4.10;;;1.30;;
24650;SDS011;12783;48.824;8.662;2023-03-23T01:51:42;2.95;;;1.20;;
24650;SDS011;12783;48.824;8.662;2023-03-23T01:54:13;1.33;;;0.98;;
24650;SDS011;12783;48.824;8.662;2023-03-23T01:56:53;2.25;;;1.05;;
24650;SDS011;12783;48.824;8.662;2023-03-23T01:59:39;1.15;;;0.95;;
24650;SDS011;12783;48.824;8.662;2023-03-23T02:02:08;1.90;;;1.17;;
24650;SDS011;12783;48.824;8.662;2023-03-23T02:04:36;1.63;;;1.10;;
24650;SDS011;12783;48.824;8.662;2023-03-23T02:07:02;2.33;;;1.20;;
24650;SDS011;12783;48.824;8.662;2023-03-23T02:09:28;3.55;;;1.20;;
24650;SDS011;12783;48.824;8.662;2023-03-23T02:11:54;2.83;;;1.00;;
24650;SDS011;12783;48.824;8.662;2023-03-23T02:14:20;1.98;;;1.10;;
24650;SDS011;12783;48.824;8.662;2023-03-23T02:33:55;1.52;;;0.90;;
24650;SDS011;12783;48.824;8.662;2023-03-23T02:36:47;2.80;;;1.38;;
24650;SDS011;12783;48.824;8.662;2023-03-23T02:41:59;1.77;;;1.13;;
24650;SDS011;12783;48.824;8.662;2023-03-23T02:44:34;2.53;;;1.15;;
24650;SDS011;12783;48.824;8.662;2023-03-23T02:47:02;3.45;;;1.20;;
24650;SDS011;12783;48.824;8.662;2023-03-23T02:49:31;2.30;;;1.25;;
24650;SDS011;12783;48.824;8.662;2023-03-23T02:52:02;3.55;;;1.52;;
24650;SDS011;12783;48.824;8.662;2023-03-23T02:54:32;1.23;;;1.08;;
24650;SDS011;12783;48.824;8.662;2023-03-23T02:56:58;3.35;;;1.35;;
24650;SDS011;12783;48.824;8.662;2023-03-23T02:59:24;1.98;;;1.42;;
24650;SDS011;12783;48.824;8.662;2023-03-23T03:01:51;1.52;;;1.10;;
24650;SDS011;12783;48.824;8.662;2023-03-23T03:04:38;1.45;;;1.20;;
24650;SDS011;12783;48.824;8.662;2023-03-23T03:09:58;2.85;;;1.10;;
24650;SDS011;12783;48.824;8.662;2023-03-23T03:12:32;1.40;;;1.30;;
24650;SDS011;12783;48.824;8.662;2023-03-23T03:15:29;2.55;;;1.23;;
24650;SDS011;12783;48.824;8.662;2023-03-23T03:18:07;3.05;;;1.20;;
24650;SDS011;12783;48.824;8.662;2023-03-23T03:20:49;1.95;;;1.35;;
24650;SDS011;12783;48.824;8.662;2023-03-23T03:23:18;4.93;;;2.38;;
24650;SDS011;12783;48.824;8.662;2023-03-23T03:25:45;3.80;;;1.20;;
24650;SDS011;12783;48.824;8.662;2023-03-23T03:28:15;2.40;;;1.30;;
24650;SDS011;12783;48.824;8.662;2023-03-23T03:30:43;2.10;;;1.35;;
24650;SDS011;12783;48.824;8.662;2023-03-23T03:33:11;1.45;;;1.20;;
24650;SDS011;12783;48.824;8.662;2023-03-23T03:35:38;2.75;;;1.10;;
24650;SDS011;12783;48.824;8.662;2023-03-23T03:38:06;2.25;;;1.20;;
24650;SDS011;12783;48.824;8.662;2023-03-23T03:40:33;1.85;;;1.10;;
24650;SDS011;12783;48.824;8.662;2023-03-23T03:42:59;2.10;;;1.33;;
24650;SDS011;12783;48.824;8.662;2023-03-23T03:45:25;2.60;;;1.10;;
24650;SDS011;12783;48.824;8.662;2023-03-23T03:47:50;8.10;;;1.50;;
24650;SDS011;12783;48.824;8.662;2023-03-23T03:50:16;3.50;;;1.20;;
24650;SDS011;12783;48.824;8.662;2023-03-23T03:52:42;1.58;;;1.20;;
24650;SDS011;12783;48.824;8.662;2023-03-23T03:55:08;1.30;;;1.00;;
24650;SDS011;12783;48.824;8.662;2023-03-23T03:57:35;1.90;;;1.08;;
24650;SDS011;12783;48.824;8.662;2023-03-23T04:00:02;1.98;;;1.15;;
24650;SDS011;12783;48.824;8.662;2023-03-23T04:02:38;1.60;;;0.93;;
24650;SDS011;12783;48.824;8.662;2023-03-23T04:05:05;3.85;;;1.10;;
24650;SDS011;12783;48.824;8.662;2023-03-23T04:07:31;1.30;;;1.10;;
24650;SDS011;12783;48.824;8.662;2023-03-23T04:09:57;1.20;;;1.00;;
24650;SDS011;12783;48.824;8.662;2023-03-23T04:12:22;1.35;;;0.98;;
24650;SDS011;12783;48.824;8.662;2023-03-23T04:14:48;1.88;;;1.20;;
24650;SDS011;12783;48.824;8.662;2023-03-23T04:17:14;1.73;;;1.25;;
24650;SDS011;12783;48.824;8.662;2023-03-23T04:19:39;1.30;;;1.00;;
24650;SDS011;12783;48.824;8.662;2023-03-23T04:22:05;1.65;;;1.10;;
24650;SDS011;12783;48.824;8.662;2023-03-23T04:24:31;2.75;;;1.10;;
24650;SDS011;12783;48.824;8.662;2023-03-23T04:26:58;1.63;;;1.00;;
24650;SDS011;12783;48.824;8.662;2023-03-23T04:29:25;1.77;;;0.93;;
24650;SDS011;12783;48.824;8.662;2023-03-23T04:31:51;1.20;;;1.10;;
24650;SDS011;12783;48.824;8.662;2023-03-23T04:34:17;3.53;;;1.42;;
24650;SDS011;12783;48.824;8.662;2023-03-23T04:36:44;3.22;;;0.90;;
24650;SDS011;12783;48.824;8.662;2023-03-23T04:39:11;1.88;;;1.10;;
24650;SDS011;12783;48.824;8.662;2023-03-23T04:41:38;1.75;;;1.00;;
24650;SDS011;12783;48.824;8.662;2023-03-23T04:44:05;3.97;;;0.90;;
24650;SDS011;12783;48.824;8.662;2023-03-23T04:46:31;1.85;;;1.02;;
24650;SDS011;12783;48.824;8.662;2023-03-23T04:48:58;3.03;;;1.00;;
24650;SDS011;12783;48.824;8.662;2023-03-23T04:51:27;2.13;;;1.10;;
24650;SDS011;12783;48.824;8.662;2023-03-23T04:53:54;2.63;;;0.90;;
24650;SDS011;12783;48.824;8.662;2023-03-23T04:56:20;1.65;;;0.90;;
24650;SDS011;12783;48.824;8.662;2023-03-23T04:58:45;3.33;;;1.00;;
24650;SDS011;12783;48.824;8.662;2023-03-23T05:01:12;2.30;;;1.30;;
24650;SDS011;12783;48.824;8.662;2023-03-23T05:03:39;1.92;;;1.15;;
24650;SDS011;12783;48.824;8.662;2023-03-23T05:06:05;1.73;;;1.00;;
24650;SDS011;12783;48.824;8.662;2023-03-23T05:08:32;1.65;;;1.10;;
24650;SDS011;12783;48.824;8.662;2023-03-23T05:10:59;2.45;;;1.30;;
24650;SDS011;12783;48.824;8.662;2023-03-23T05:13:27;3.25;;;1.20;;
24650;SDS011;12783;48.824;8.662;2023-03-23T05:15:53;1.83;;;1.15;;
24650;SDS011;12783;48.824;8.662;2023-03-23T05:18:19;1.58;;;1.20;;
24650;SDS011;12783;48.824;8.662;2023-03-23T05:20:45;2.80;;;1.27;;
24650;SDS011;12783;48.824;8.662;2023-03-23T05:23:12;2.17;;;1.10;;
24650;SDS011;12783;48.824;8.662;2023-03-23T05:25:38;1.52;;;0.98;;
24650;SDS011;12783;48.824;8.662;2023-03-23T05:28:06;1.98;;;1.20;;
24650;SDS011;12783;48.824;8.662;2023-03-23T05:30:32;1.98;;;1.00;;
24650;SDS011;12783;48.824;8.662;2023-03-23T05:32:58;2.35;;;1.10;;
24650;SDS011;12783;48.824;8.662;2023-03-23T05:35:25;2.22;;;1.25;;
24650;SDS011;12783;48.824;8.662;2023-03-23T05:37:50;4.60;;;1.23;;
24650;SDS011;12783;48.824;8.662;2023-03-23T05:40:18;1.92;;;1.30;;
24650;SDS011;12783;48.824;8.662;2023-03-23T05:42:45;3.00;;;1.35;;
24650;SDS011;12783;48.824;8.662;2023-03-23T05:45:11;2.05;;;1.02;;
24650;SDS011;12783;48.824;8.662;2023-03-23T05:47:40;1.83;;;1.20;;
24650;SDS011;12783;48.824;8.662;2023-03-23T05:50:06;1.85;;;1.35;;
24650;SDS011;12783;48.824;8.662;2023-03-23T05:52:34;1.60;;;1.10;;
24650;SDS011;12783;48.824;8.662;2023-03-23T05:55:01;2.90;;;1.40;;
24650;SDS011;12783;48.824;8.662;2023-03-23T05:57:28;3.08;;;1.42;;
24650;SDS011;12783;48.824;8.662;2023-03-23T05:59:54;4.35;;;1.42;;
24650;SDS011;12783;48.824;8.662;2023-03-23T06:02:21;2.05;;;1.08;;
24650;SDS011;12783;48.824;8.662;2023-03-23T06:04:48;2.13;;;1.55;;
24650;SDS011;12783;48.824;8.662;2023-03-23T06:07:14;2.45;;;1.60;;
24650;SDS011;12783;48.824;8.662;2023-03-23T06:09:40;2.42;;;1.30;;
24650;SDS011;12783;48.824;8.662;2023-03-23T06:12:06;2.60;;;1.70;;
24650;SDS011;12783;48.824;8.662;2023-03-23T06:14:32;1.83;;;1.23;;
24650;SDS011;12783;48.824;8.662;2023-03-23T06:16:58;3.75;;;1.30;;
24650;SDS011;12783;48.824;8.662;2023-03-23T06:19:24;2.08;;;1.58;;
24650;SDS011;12783;48.824;8.662;2023-03-23T06:21:52;2.30;;;1.35;;
24650;SDS011;12783;48.824;8.662;2023-03-23T06:24:19;3.13;;;1.63;;
24650;SDS011;12783;48.824;8.662;2023-03-23T06:26:46;3.42;;;1.80;;
24650;SDS011;12783;48.824;8.662;2023-03-23T06:29:12;5.78;;;1.75;;
24650;SDS011;12783;48.824;8.662;2023-03-23T06:31:39;1.80;;;1.60;;
24650;SDS011;12783;48.824;8.662;2023-03-23T06:34:07;4.80;;;1.70;;
24650;SDS011;12783;48.824;8.662;2023-03-23T06:36:34;2.15;;;1.40;;
24650;SDS011;12783;48.824;8.662;2023-03-23T06:39:01;1.50;;;1.30;;
24650;SDS011;12783;48.824;8.662;2023-03-23T06:41:29;3.95;;;1.60;;
24650;SDS011;12783;48.824;8.662;2023-03-23T06:43:58;4.60;;;1.60;;
24650;SDS011;12783;48.824;8.662;2023-03-23T06:46:24;2.83;;;1.95;;
24650;SDS011;12783;48.824;8.662;2023-03-23T06:48:50;2.80;;;1.77;;
24650;SDS011;12783;48.824;8.662;2023-03-23T06:51:16;2.38;;;1.80;;
24650;SDS011;12783;48.824;8.662;2023-03-23T06:53:43;1.92;;;1.60;;
24650;SDS011;12783;48.824;8.662;2023-03-23T06:56:09;2.25;;;1.50;;
24650;SDS011;12783;48.824;8.662;2023-03-23T06:58:35;3.40;;;2.05;;
24650;SDS011;12783;48.824;8.662;2023-03-23T07:01:01;4.45;;;2.17;;
24650;SDS011;12783;48.824;8.662;2023-03-23T07:03:27;3.40;;;1.77;;
24650;SDS011;12783;48.824;8.662;2023-03-23T07:05:53;2.38;;;1.67;;
24650;SDS011;12783;48.824;8.662;2023-03-23T07:08:20;4.32;;;1.80;;
24650;SDS011;12783;48.824;8.662;2023-03-23T07:10:46;4.38;;;1.80;;
24650;SDS011;12783;48.824;8.662;2023-03-23T07:13:12;3.13;;;2.03;;
24650;SDS011;12783;48.824;8.662;2023-03-23T07:15:38;2.80;;;1.88;;
24650;SDS011;12783;48.824;8.662;2023-03-23T07:18:04;3.72;;;2.00;;
24650;SDS011;12783;48.824;8.662;2023-03-23T07:20:30;3.65;;;1.95;;
24650;SDS011;12783;48.824;8.662;2023-03-23T07:22:56;2.13;;;1.70;;
24650;SDS011;12783;48.824;8.662;2023-03-23T07:25:22;2.58;;;1.92;;
24650;SDS011;12783;48.824;8.662;2023-03-23T07:27:47;3.05;;;1.90;;
24650;SDS011;12783;48.824;8.662;2023-03-23T07:30:13;2.92;;;2.15;;
24650;SDS011;12783;48.824;8.662;2023-03-23T07:32:40;2.90;;;1.80;;
24650;SDS011;12783;48.824;8.662;2023-03-23T07:35:06;3.05;;;1.95;;
24650;SDS011;12783;48.824;8.662;2023-03-23T07:37:33;2.42;;;2.22;;
24650;SDS011;12783;48.824;8.662;2023-03-23T07:39:59;2.90;;;2.13;;
24650;SDS011;12783;48.824;8.662;2023-03-23T07:42:24;4.22;;;2.15;;
24650;SDS011;12783;48.824;8.662;2023-03-23T07:44:50;4.93;;;1.92;;
24650;SDS011;12783;48.824;8.662;2023-03-23T07:47:16;3.83;;;2.05;;
24650;SDS011;12783;48.824;8.662;2023-03-23T07:49:43;3.45;;;1.90;;
24650;SDS011;12783;48.824;8.662;2023-03-23T07:52:08;3.72;;;1.60;;
24650;SDS011;12783;48.824;8.662;2023-03-23T07:54:36;4.38;;;1.50;;
24650;SDS011;12783;48.824;8.662;2023-03-23T07:57:01;2.88;;;1.70;;
24650;SDS011;12783;48.824;8.662;2023-03-23T07:59:28;2.45;;;1.50;;
24650;SDS011;12783;48.824;8.662;2023-03-23T08:01:53;3.38;;;1.80;;
24650;SDS011;12783;48.824;8.662;2023-03-23T08:04:19;2.13;;;1.60;;
24650;SDS011;12783;48.824;8.662;2023-03-23T08:06:45;3.17;;;1.67;;
24650;SDS011;12783;48.824;8.662;2023-03-23T08:09:10;1.80;;;1.60;;
24650;SDS011;12783;48.824;8.662;2023-03-23T08:11:37;2.70;;;1.80;;
24650;SDS011;12783;48.824;8.662;2023-03-23T08:14:03;3.47;;;1.75;;
24650;SDS011;12783;48.824;8.662;2023-03-23T08:16:30;4.20;;;1.92;;
24650;SDS011;12783;48.824;8.662;2023-03-23T08:18:57;4.05;;;1.75;;
24650;SDS011;12783;48.824;8.662;2023-03-23T08:21:23;4.97;;;2.15;;
24650;SDS011;12783;48.824;8.662;2023-03-23T08:23:48;5.15;;;1.80;;
24650;SDS011;12783;48.824;8.662;2023-03-23T08:26:14;3.38;;;1.85;;
24650;SDS011;12783;48.824;8.662;2023-03-23T08:28:42;4.85;;;2.00;;
24650;SDS011;12783;48.824;8.662;2023-03-23T08:31:09;2.92;;;2.03;;
24650;SDS011;12783;48.824;8.662;2023-03-23T08:33:36;4.22;;;1.92;;
24650;SDS011;12783;48.824;8.662;2023-03-23T08:36:02;3.17;;;1.90;;
24650;SDS011;12783;48.824;8.662;2023-03-23T08:38:28;5.22;;;1.60;;
24650;SDS011;12783;48.824;8.662;2023-03-23T08:40:58;3.13;;;1.80;;
24650;SDS011;12783;48.824;8.662;2023-03-23T08:43:25;1.90;;;1.45;;
24650;SDS011;12783;48.824;8.662;2023-03-23T08:45:52;3.05;;;1.50;;
24650;SDS011;12783;48.824;8.662;2023-03-23T08:48:18;3.47;;;1.67;;
24650;SDS011;12783;48.824;8.662;2023-03-23T08:50:45;2.85;;;1.80;;
24650;SDS011;12783;48.824;8.662;2023-03-23T08:53:11;6.15;;;3.08;;
24650;SDS011;12783;48.824;8.662;2023-03-23T08:55:37;5.60;;;1.73;;
24650;SDS011;12783;48.824;8.662;2023-03-23T08:58:03;2.20;;;1.70;;
24650;SDS011;12783;48.824;8.662;2023-03-23T09:00:29;3.33;;;1.67;;
24650;SDS011;12783;48.824;8.662;2023-03-23T09:02:55;1.52;;;1.30;;
24650;SDS011;12783;48.824;8.662;2023-03-23T09:05:23;2.70;;;1.70;;
24650;SDS011;12783;48.824;8.662;2023-03-23T09:07:50;5.07;;;1.85;;
24650;SDS011;12783;48.824;8.662;2023-03-23T09:10:17;2.00;;;1.50;;
24650;SDS011;12783;48.824;8.662;2023-03-23T09:12:44;3.60;;;1.80;;
24650;SDS011;12783;48.824;8.662;2023-03-23T09:15:11;3.08;;;1.48;;
24650;SDS011;12783;48.824;8.662;2023-03-23T09:17:41;2.90;;;1.45;;
24650;SDS011;12783;48.824;8.662;2023-03-23T09:20:10;2.42;;;1.33;;
24650;SDS011;12783;48.824;8.662;2023-03-23T09:22:42;2.30;;;1.45;;
24650;SDS011;12783;48.824;8.662;2023-03-23T09:25:11;3.63;;;1.60;;
24650;SDS011;12783;48.824;8.662;2023-03-23T09:27:39;3.88;;;1.85;;
24650;SDS011;12783;48.824;8.662;2023-03-23T09:30:07;3.13;;;1.70;;
24650;SDS011;12783;48.824;8.662;2023-03-23T09:32:36;3.05;;;1.75;;
24650;SDS011;12783;48.824;8.662;2023-03-23T09:35:04;2.75;;;1.70;;
24650;SDS011;12783;48.824;8.662;2023-03-23T09:37:33;3.85;;;1.50;;
24650;SDS011;12783;48.824;8.662;2023-03-23T09:40:01;3.25;;;1.80;;
24650;SDS011;12783;48.824;8.662;2023-03-23T09:45:06;1.85;;;1.70;;
24650;SDS011;12783;48.824;8.662;2023-03-23T09:50:26;1.98;;;1.70;;
24650;SDS011;12783;48.824;8.662;2023-03-23T09:53:02;2.40;;;1.42;;
24650;SDS011;12783;48.824;8.662;2023-03-23T09:55:34;1.65;;;1.45;;
24650;SDS011;12783;48.824;8.662;2023-03-23T10:00:42;1.73;;;1.50;;
24650;SDS011;12783;48.824;8.662;2023-03-23T10:05:46;3.08;;;1.38;;
24650;SDS011;12783;48.824;8.662;2023-03-23T10:08:15;1.73;;;1.50;;
24650;SDS011;12783;48.824;8.662;2023-03-23T10:10:45;2.15;;;1.50;;
24650;SDS011;12783;48.824;8.662;2023-03-23T10:16:15;1.67;;;1.45;;
24650;SDS011;12783;48.824;8.662;2023-03-23T10:18:49;2.38;;;1.60;;
24650;SDS011;12783;48.824;8.662;2023-03-23T10:21:21;2.05;;;1.48;;
24650;SDS011;12783;48.824;8.662;2023-03-23T10:23:52;4.03;;;1.58;;
24650;SDS011;12783;48.824;8.662;2023-03-23T10:29:19;4.20;;;1.70;;
24650;SDS011;12783;48.824;8.662;2023-03-23T10:31:57;1.60;;;1.40;;
24650;SDS011;12783;48.824;8.662;2023-03-23T10:34:47;2.33;;;1.77;;
24650;SDS011;12783;48.824;8.662;2023-03-23T10:37:13;3.45;;;1.75;;
24650;SDS011;12783;48.824;8.662;2023-03-23T10:39:48;2.60;;;1.63;;
24650;SDS011;12783;48.824;8.662;2023-03-23T10:42:30;4.18;;;1.80;;
24650;SDS011;12783;48.824;8.662;2023-03-23T10:44:58;2.28;;;1.50;;
24650;SDS011;12783;48.824;8.662;2023-03-23T10:47:39;3.33;;;2.15;;
24650;SDS011;12783;48.824;8.662;2023-03-23T10:50:13;3.85;;;2.00;;
24650;SDS011;12783;48.824;8.662;2023-03-23T10:52:43;3.30;;;2.20;;
24650;SDS011;12783;48.824;8.662;2023-03-23T10:55:14;2.33;;;1.70;;
24650;SDS011;12783;48.824;8.662;2023-03-23T10:57:44;1.65;;;1.52;;
24650;SDS011;12783;48.824;8.662;2023-03-23T11:05:25;2.63;;;1.35;;
24650;SDS011;12783;48.824;8.662;2023-03-23T11:07:56;3.05;;;1.80;;
24650;SDS011;12783;48.824;8.662;2023-03-23T11:10:24;3.08;;;1.58;;
24650;SDS011;12783;48.824;8.662;2023-03-23T11:12:52;3.30;;;1.92;;
24650;SDS011;12783;48.824;8.662;2023-03-23T11:15:27;3.47;;;1.60;;
24650;SDS011;12783;48.824;8.662;2023-03-23T11:17:56;2.95;;;1.50;;
24650;SDS011;12783;48.824;8.662;2023-03-23T11:20:27;3.15;;;1.83;;
24650;SDS011;12783;48.824;8.662;2023-03-23T11:22:54;3.50;;;2.13;;
24650;SDS011;12783;48.824;8.662;2023-03-23T11:25:21;2.90;;;1.77;;
24650;SDS011;12783;48.824;8.662;2023-03-23T11:27:47;2.15;;;1.75;;
24650;SDS011;12783;48.824;8.662;2023-03-23T11:30:22;2.67;;;1.98;;
24650;SDS011;12783;48.824;8.662;2023-03-23T11:32:50;2.70;;;1.92;;
24650;SDS011;12783;48.824;8.662;2023-03-23T11:35:20;1.80;;;1.60;;
24650;SDS011;12783;48.824;8.662;2023-03-23T11:37:52;2.72;;;1.95;;
24650;SDS011;12783;48.824;8.662;2023-03-23T11:40:23;3.40;;;1.95;;
24650;SDS011;12783;48.824;8.662;2023-03-23T11:42:58;3.38;;;2.10;;
24650;SDS011;12783;48.824;8.662;2023-03-23T11:45:39;4.63;;;2.30;;
24650;SDS011;12783;48.824;8.662;2023-03-23T11:48:13;2.80;;;2.10;;
24650;SDS011;12783;48.824;8.662;2023-03-23T11:50:47;5.35;;;2.03;;
24650;SDS011;12783;48.824;8.662;2023-03-23T11:56:08;2.50;;;1.90;;
24650;SDS011;12783;48.824;8.662;2023-03-23T11:58:55;3.80;;;2.40;;
24650;SDS011;12783;48.824;8.662;2023-03-23T12:01:32;2.83;;;2.15;;
24650;SDS011;12783;48.824;8.662;2023-03-23T12:12:32;4.93;;;2.60;;
24650;SDS011;12783;48.824;8.662;2023-03-23T12:18:45;4.32;;;2.70;;
24650;SDS011;12783;48.824;8.662;2023-03-23T12:23:38;4.63;;;2.65;;
24650;SDS011;12783;48.824;8.662;2023-03-23T12:26:27;5.97;;;2.40;;
24650;SDS011;12783;48.824;8.662;2023-03-23T12:29:16;4.32;;;2.38;;
24650;SDS011;12783;48.824;8.662;2023-03-23T12:32:07;4.43;;;2.40;;
24650;SDS011;12783;48.824;8.662;2023-03-23T12:43:13;5.05;;;2.20;;
24650;SDS011;12783;48.824;8.662;2023-03-23T12:46:00;3.40;;;2.30;;
24650;SDS011;12783;48.824;8.662;2023-03-23T12:49:03;5.57;;;2.67;;
24650;SDS011;12783;48.824;8.662;2023-03-23T12:51:37;4.22;;;2.00;;
24650;SDS011;12783;48.824;8.662;2023-03-23T12:54:20;4.50;;;2.60;;
24650;SDS011;12783;48.824;8.662;2023-03-23T12:57:08;4.50;;;2.80;;
24650;SDS011;12783;48.824;8.662;2023-03-23T13:00:02;3.63;;;2.33;;
24650;SDS011;12783;48.824;8.662;2023-03-23T13:05:46;3.10;;;2.10;;
24650;SDS011;12783;48.824;8.662;2023-03-23T13:08:21;3.85;;;2.13;;
24650;SDS011;12783;48.824;8.662;2023-03-23T13:10:52;2.78;;;2.05;;
24650;SDS011;12783;48.824;8.662;2023-03-23T13:13:24;3.35;;;2.47;;
24650;SDS011;12783;48.824;8.662;2023-03-23T13:16:12;3.38;;;2.00;;
24650;SDS011;12783;48.824;8.662;2023-03-23T13:23:49;3.50;;;2.05;;
24650;SDS011;12783;48.824;8.662;2023-03-23T13:26:20;3.35;;;2.17;;
24650;SDS011;12783;48.824;8.662;2023-03-23T13:34:39;3.15;;;2.10;;
24650;SDS011;12783;48.824;8.662;2023-03-23T13:37:00;4.25;;;1.80;;
24650;SDS011;12783;48.824;8.662;2023-03-23T13:39:52;3.75;;;1.90;;
24650;SDS011;12783;48.824;8.662;2023-03-23T13:42:27;1.87;;;1.70;;
24650;SDS011;12783;48.824;8.662;2023-03-23T13:45:43;3.50;;;1.90;;
24650;SDS011;12783;48.824;8.662;2023-03-23T13:47:49;3.22;;;1.92;;
24650;SDS011;12783;48.824;8.662;2023-03-23T13:57:55;4.28;;;1.75;;
24650;SDS011;12783;48.824;8.662;2023-03-23T14:03:03;3.00;;;1.98;;
24650;SDS011;12783;48.824;8.662;2023-03-23T14:06:33;3.30;;;2.28;;
24650;SDS011;12783;48.824;8.662;2023-03-23T14:13:47;3.53;;;1.77;;
24650;SDS011;12783;48.824;8.662;2023-03-23T14:19:01;3.38;;;2.10;;
24650;SDS011;12783;48.824;8.662;2023-03-23T14:24:17;2.70;;;2.05;;
24650;SDS011;12783;48.824;8.662;2023-03-23T14:26:49;4.50;;;2.00;;
24650;SDS011;12783;48.824;8.662;2023-03-23T14:29:26;2.38;;;1.55;;
24650;SDS011;12783;48.824;8.662;2023-03-23T14:31:53;3.55;;;1.95;;
24650;SDS011;12783;48.824;8.662;2023-03-23T14:34:20;3.45;;;2.10;;
24650;SDS011;12783;48.824;8.662;2023-03-23T14:36:47;2.05;;;1.60;;
24650;SDS011;12783;48.824;8.662;2023-03-23T14:41:50;4.95;;;2.22;;
24650;SDS011;12783;48.824;8.662;2023-03-23T14:44:18;3.20;;;1.95;;
24650;SDS011;12783;48.824;8.662;2023-03-23T14:46:55;3.67;;;1.70;;
24650;SDS011;12783;48.824;8.662;2023-03-23T14:49:27;3.97;;;2.20;;
24650;SDS011;12783;48.824;8.662;2023-03-23T14:52:02;2.80;;;2.00;;
24650;SDS011;12783;48.824;8.662;2023-03-23T14:54:40;2.42;;;1.90;;
24650;SDS011;12783;48.824;8.662;2023-03-23T14:57:16;4.82;;;1.92;;
24650;SDS011;12783;48.824;8.662;2023-03-23T14:59:43;4.88;;;2.03;;
24650;SDS011;12783;48.824;8.662;2023-03-23T15:02:11;2.50;;;1.92;;
24650;SDS011;12783;48.824;8.662;2023-03-23T15:04:38;1.88;;;1.63;;
24650;SDS011;12783;48.824;8.662;2023-03-23T15:07:04;3.00;;;1.67;;
24650;SDS011;12783;48.824;8.662;2023-03-23T15:09:30;3.38;;;1.70;;
24650;SDS011;12783;48.824;8.662;2023-03-23T15:11:57;6.20;;;2.05;;
24650;SDS011;12783;48.824;8.662;2023-03-23T15:14:32;2.63;;;1.83;;
24650;SDS011;12783;48.824;8.662;2023-03-23T15:17:09;2.38;;;1.80;;
24650;SDS011;12783;48.824;8.662;2023-03-23T15:19:42;1.73;;;1.45;;
24650;SDS011;12783;48.824;8.662;2023-03-23T15:24:51;3.28;;;2.00;;
24650;SDS011;12783;48.824;8.662;2023-03-23T15:27:38;3.15;;;1.70;;
24650;SDS011;12783;48.824;8.662;2023-03-23T15:32:53;3.20;;;1.85;;
24650;SDS011;12783;48.824;8.662;2023-03-23T15:35:22;2.50;;;1.67;;
24650;SDS011;12783;48.824;8.662;2023-03-23T15:37:51;2.75;;;2.00;;
24650;SDS011;12783;48.824;8.662;2023-03-23T15:40:24;3.03;;;1.92;;
24650;SDS011;12783;48.824;8.662;2023-03-23T15:43:08;2.65;;;1.70;;
24650;SDS011;12783;48.824;8.662;2023-03-23T15:48:25;4.28;;;2.05;;
24650;SDS011;12783;48.824;8.662;2023-03-23T15:50:51;5.65;;;1.70;;
24650;SDS011;12783;48.824;8.662;2023-03-23T15:53:31;2.47;;;1.55;;
24650;SDS011;12783;48.824;8.662;2023-03-23T15:56:02;5.18;;;2.67;;
24650;SDS011;12783;48.824;8.662;2023-03-23T15:58:30;4.30;;;3.13;;
24650;SDS011;12783;48.824;8.662;2023-03-23T16:00:57;3.88;;;2.08;;
24650;SDS011;12783;48.824;8.662;2023-03-23T16:04:13;3.15;;;1.80;;
24650;SDS011;12783;48.824;8.662;2023-03-23T16:06:16;3.03;;;1.50;;
24650;SDS011;12783;48.824;8.662;2023-03-23T16:08:51;5.15;;;3.90;;
24650;SDS011;12783;48.824;8.662;2023-03-23T16:11:19;3.13;;;2.20;;
24650;SDS011;12783;48.824;8.662;2023-03-23T16:13:46;8.25;;;4.20;;
24650;SDS011;12783;48.824;8.662;2023-03-23T16:16:17;5.47;;;2.17;;
24650;SDS011;12783;48.824;8.662;2023-03-23T16:18:47;2.72;;;1.63;;
24650;SDS011;12783;48.824;8.662;2023-03-23T16:21:14;2.53;;;1.90;;
24650;SDS011;12783;48.824;8.662;2023-03-23T16:23:41;2.70;;;2.00;;
24650;SDS011;12783;48.824;8.662;2023-03-23T16:26:10;4.55;;;2.42;;
24650;SDS011;12783;48.824;8.662;2023-03-23T16:28:37;3.60;;;2.17;;
24650;SDS011;12783;48.824;8.662;2023-03-23T16:31:04;3.83;;;2.28;;
24650;SDS011;12783;48.824;8.662;2023-03-23T16:33:31;2.78;;;1.80;;
24650;SDS011;12783;48.824;8.662;2023-03-23T16:35:58;4.63;;;2.03;;
24650;SDS011;12783;48.824;8.662;2023-03-23T16:38:24;3.25;;;2.17;;
24650;SDS011;12783;48.824;8.662;2023-03-23T16:40:51;3.40;;;2.05;;
24650;SDS011;12783;48.824;8.662;2023-03-23T16:43:18;3.65;;;1.90;;
24650;SDS011;12783;48.824;8.662;2023-03-23T16:45:46;2.92;;;1.80;;
24650;SDS011;12783;48.824;8.662;2023-03-23T16:48:14;3.47;;;2.08;;
24650;SDS011;12783;48.824;8.662;2023-03-23T16:50:42;3.60;;;2.00;;
24650;SDS011;12783;48.824;8.662;2023-03-23T16:53:09;2.85;;;2.17;;
24650;SDS011;12783;48.824;8.662;2023-03-23T16:55:37;2.85;;;1.88;;
24650;SDS011;12783;48.824;8.662;2023-03-23T16:58:05;2.08;;;1.73;;
24650;SDS011;12783;48.824;8.662;2023-03-23T17:00:42;3.83;;;2.90;;